sensor_id;sensor_type;location;lat;lon;timestamp;temperature;humidity
45715;DHT22;31430;61.646;24.704;2023-04-01T00:02:18;-13.80;99.90
45715;DHT22;31430;61.646;24.704;2023-04-01T00:04:44;-13.80;99.90
45715;DHT22;31430;61.646;24.704;2023-04-01T00:07:10;-13.90;99.90
45715;DHT22;31430;61.646;24.704;2023-04-01T00:09:36;-14.10;99.90
45715;DHT22;31430;61.646;24.704;2023-04-01T00:12:02;-14.10;99.90
45715;DHT22;31430;61.646;24.704;2023-04-01T00:14:27;-14.20;99.90
45715;DHT22;31430;61.646;24.704;2023-04-01T00:16:54;-14.10;99.90
45715;DHT22;31430;61.646;24.704;2023-04-01T00:19:20;-14.00;99.90
45715;DHT22;31430;61.646;24.704;2023-04-01T00:21:45;-13.90;99.90
45715;DHT22;31430;61.646;24.704;2023-04-01T00:24:12;-13.90;99.90
45715;DHT22;31430;61.646;24.704;2023-04-01T00:26:37;-14.00;99.90
45715;DHT22;31430;61.646;24.704;2023-04-01T00:29:03;-14.30;99.90
45715;DHT22;31430;61.646;24.704;2023-04-01T00:31:29;-14.60;99.90
45715;DHT22;31430;61.646;24.704;2023-04-01T00:33:55;-14.40;99.90
45715;DHT22;31430;61.646;24.704;2023-04-01T00:36:22;-14.50;99.90
45715;DHT22;31430;61.646;24.704;2023-04-01T00:38:49;-14.30;99.90
45715;DHT22;31430;61.646;24.704;2023-04-01T00:41:16;-14.40;99.90
45715;DHT22;31430;61.646;24.704;2023-04-01T00:43:48;-14.20;99.90
45715;DHT22;31430;61.646;24.704;2023-04-01T00:46:14;-14.10;99.90
45715;DHT22;31430;61.646;24.704;2023-04-01T00:48:45;-14.20;99.90
45715;DHT22;31430;61.646;24.704;2023-04-01T00:51:21;-14.40;99.90
45715;DHT22;31430;61.646;24.704;2023-04-01T00:53:52;-14.50;99.90
45715;DHT22;31430;61.646;24.704;2023-04-01T00:56:22;-14.50;99.90
45715;DHT22;31430;61.646;24.704;2023-04-01T00:59:04;-14.50;99.90
45715;DHT22;31430;61.646;24.704;2023-04-01T01:01:34;-14.70;99.90
45715;DHT22;31430;61.646;24.704;2023-04-01T01:04:00;-14.60;99.90
45715;DHT22;31430;61.646;24.704;2023-04-01T01:12:11;-14.60;99.90
45715;DHT22;31430;61.646;24.704;2023-04-01T01:17:58;-14.70;99.90
45715;DHT22;31430;61.646;24.704;2023-04-01T01:26:57;-14.90;99.90
45715;DHT22;31430;61.646;24.704;2023-04-01T01:37:27;-14.70;99.90
45715;DHT22;31430;61.646;24.704;2023-04-01T01:40:01;-14.70;99.90
45715;DHT22;31430;61.646;24.704;2023-04-01T01:42:28;-14.70;99.90
45715;DHT22;31430;61.646;24.704;2023-04-01T01:44:57;-14.70;99.90
45715;DHT22;31430;61.646;24.704;2023-04-01T01:47:25;-14.60;99.90
45715;DHT22;31430;61.646;24.704;2023-04-01T01:49:53;-14.70;99.90
45715;DHT22;31430;61.646;24.704;2023-04-01T01:52:19;-14.90;99.90
45715;DHT22;31430;61.646;24.704;2023-04-01T01:54:51;-15.10;99.90
45715;DHT22;31430;61.646;24.704;2023-04-01T01:57:19;-15.10;99.90
45715;DHT22;31430;61.646;24.704;2023-04-01T01:59:46;-15.00;99.90
45715;DHT22;31430;61.646;24.704;2023-04-01T02:02:13;-15.00;99.90
45715;DHT22;31430;61.646;24.704;2023-04-01T02:04:46;-14.80;99.90
45715;DHT22;31430;61.646;24.704;2023-04-01T02:07:33;-14.90;99.90
45715;DHT22;31430;61.646;24.704;2023-04-01T02:09:59;-15.00;99.90
45715;DHT22;31430;61.646;24.704;2023-04-01T02:12:26;-15.10;99.90
45715;DHT22;31430;61.646;24.704;2023-04-01T02:17:32;-15.20;99.90
45715;DHT22;31430;61.646;24.704;2023-04-01T02:20:01;-15.20;99.90
45715;DHT22;31430;61.646;24.704;2023-04-01T02:22:33;-15.30;99.90
45715;DHT22;31430;61.646;24.704;2023-04-01T02:25:08;-15.40;99.90
45715;DHT22;31430;61.646;24.704;2023-04-01T02:27:35;-15.30;99.90
45715;DHT22;31430;61.646;24.704;2023-04-01T02:30:01;-15.30;99.90
45715;DHT22;31430;61.646;24.704;2023-04-01T02:32:28;-15.50;99.90
45715;DHT22;31430;61.646;24.704;2023-04-01T02:34:55;-15.40;99.90
45715;DHT22;31430;61.646;24.704;2023-04-01T02:37:21;-15.40;99.90
45715;DHT22;31430;61.646;24.704;2023-04-01T02:39:47;-15.30;99.90
45715;DHT22;31430;61.646;24.704;2023-04-01T02:42:14;-15.20;99.90
45715;DHT22;31430;61.646;24.704;2023-04-01T02:44:40;-15.10;99.90
45715;DHT22;31430;61.646;24.704;2023-04-01T02:47:05;-15.20;99.90
45715;DHT22;31430;61.646;24.704;2023-04-01T02:49:31;-15.40;99.90
45715;DHT22;31430;61.646;24.704;2023-04-01T02:51:57;-15.50;99.90
45715;DHT22;31430;61.646;24.704;2023-04-01T02:54:22;-15.40;99.90
45715;DHT22;31430;61.646;24.704;2023-04-01T02:56:48;-15.50;99.90
45715;DHT22;31430;61.646;24.704;2023-04-01T02:59:14;-15.40;99.90
45715;DHT22;31430;61.646;24.704;2023-04-01T03:01:40;-15.40;99.90
45715;DHT22;31430;61.646;24.704;2023-04-01T03:04:05;-15.30;99.90
45715;DHT22;31430;61.646;24.704;2023-04-01T03:06:31;-15.30;99.90
45715;DHT22;31430;61.646;24.704;2023-04-01T03:08:57;-15.40;99.90
45715;DHT22;31430;61.646;24.704;2023-04-01T03:11:22;-15.40;99.90
45715;DHT22;31430;61.646;24.704;2023-04-01T03:13:48;-15.50;99.90
45715;DHT22;31430;61.646;24.704;2023-04-01T03:16:14;-15.40;99.90
45715;DHT22;31430;61.646;24.704;2023-04-01T03:18:40;-15.10;99.90
45715;DHT22;31430;61.646;24.704;2023-04-01T03:21:16;-15.30;99.90
45715;DHT22;31430;61.646;24.704;2023-04-01T03:23:43;-15.30;99.90
45715;DHT22;31430;61.646;24.704;2023-04-01T03:26:08;-15.30;99.90
45715;DHT22;31430;61.646;24.704;2023-04-01T03:28:34;-15.20;99.90
45715;DHT22;31430;61.646;24.704;2023-04-01T03:31:00;-15.30;99.90
45715;DHT22;31430;61.646;24.704;2023-04-01T03:33:25;-15.30;99.90
45715;DHT22;31430;61.646;24.704;2023-04-01T03:35:51;-15.30;99.90
45715;DHT22;31430;61.646;24.704;2023-04-01T03:38:17;-15.20;99.90
45715;DHT22;31430;61.646;24.704;2023-04-01T03:40:43;-15.10;99.90
45715;DHT22;31430;61.646;24.704;2023-04-01T03:43:09;-15.00;99.90
45715;DHT22;31430;61.646;24.704;2023-04-01T03:45:36;-15.00;99.90
45715;DHT22;31430;61.646;24.704;2023-04-01T03:48:01;-15.00;99.90
45715;DHT22;31430;61.646;24.704;2023-04-01T03:50:27;-15.20;99.90
45715;DHT22;31430;61.646;24.704;2023-04-01T03:52:53;-15.30;99.90
45715;DHT22;31430;61.646;24.704;2023-04-01T03:55:18;-15.20;99.90
45715;DHT22;31430;61.646;24.704;2023-04-01T03:57:44;-15.50;99.90
45715;DHT22;31430;61.646;24.704;2023-04-01T04:00:11;-15.50;99.90
45715;DHT22;31430;61.646;24.704;2023-04-01T04:02:36;-15.50;99.90
45715;DHT22;31430;61.646;24.704;2023-04-01T04:05:02;-15.50;99.90
45715;DHT22;31430;61.646;24.704;2023-04-01T04:07:29;-15.30;99.90
45715;DHT22;31430;61.646;24.704;2023-04-01T04:09:55;-15.40;99.90
45715;DHT22;31430;61.646;24.704;2023-04-01T04:12:21;-15.30;99.90
45715;DHT22;31430;61.646;24.704;2023-04-01T04:14:46;-15.10;99.90
45715;DHT22;31430;61.646;24.704;2023-04-01T04:17:12;-15.20;99.90
45715;DHT22;31430;61.646;24.704;2023-04-01T04:19:42;-15.50;99.90
45715;DHT22;31430;61.646;24.704;2023-04-01T04:22:08;-15.70;99.90
45715;DHT22;31430;61.646;24.704;2023-04-01T04:24:36;-15.80;99.90
45715;DHT22;31430;61.646;24.704;2023-04-01T04:27:03;-15.90;99.90
45715;DHT22;31430;61.646;24.704;2023-04-01T04:29:29;-15.90;99.90
45715;DHT22;31430;61.646;24.704;2023-04-01T04:31:55;-15.60;99.90
45715;DHT22;31430;61.646;24.704;2023-04-01T04:34:21;-15.30;99.90
45715;DHT22;31430;61.646;24.704;2023-04-01T04:36:48;-14.80;99.90
45715;DHT22;31430;61.646;24.704;2023-04-01T04:39:14;-14.40;99.90
45715;DHT22;31430;61.646;24.704;2023-04-01T04:41:40;-14.30;99.90
45715;DHT22;31430;61.646;24.704;2023-04-01T04:44:06;-14.00;99.90
45715;DHT22;31430;61.646;24.704;2023-04-01T04:46:32;-13.90;99.90
45715;DHT22;31430;61.646;24.704;2023-04-01T04:48:58;-13.70;99.90
45715;DHT22;31430;61.646;24.704;2023-04-01T04:51:24;-13.70;99.90
45715;DHT22;31430;61.646;24.704;2023-04-01T04:53:50;-13.70;99.90
45715;DHT22;31430;61.646;24.704;2023-04-01T04:56:20;-13.80;99.90
45715;DHT22;31430;61.646;24.704;2023-04-01T04:58:46;-13.80;99.90
45715;DHT22;31430;61.646;24.704;2023-04-01T05:01:14;-13.70;99.90
45715;DHT22;31430;61.646;24.704;2023-04-01T05:03:40;-13.80;99.90
45715;DHT22;31430;61.646;24.704;2023-04-01T05:06:08;-13.80;99.90
45715;DHT22;31430;61.646;24.704;2023-04-01T05:08:34;-13.40;99.90
45715;DHT22;31430;61.646;24.704;2023-04-01T05:11:01;-13.20;99.90
45715;DHT22;31430;61.646;24.704;2023-04-01T05:13:27;-13.10;99.90
45715;DHT22;31430;61.646;24.704;2023-04-01T05:15:53;-12.90;99.90
45715;DHT22;31430;61.646;24.704;2023-04-01T05:18:19;-12.60;99.90
45715;DHT22;31430;61.646;24.704;2023-04-01T05:20:54;-12.70;99.90
45715;DHT22;31430;61.646;24.704;2023-04-01T05:23:22;-12.70;99.90
45715;DHT22;31430;61.646;24.704;2023-04-01T05:25:48;-12.80;99.90
45715;DHT22;31430;61.646;24.704;2023-04-01T05:28:15;-12.70;99.90
45715;DHT22;31430;61.646;24.704;2023-04-01T05:30:42;-12.90;99.90
45715;DHT22;31430;61.646;24.704;2023-04-01T05:33:10;-12.80;99.90
45715;DHT22;31430;61.646;24.704;2023-04-01T05:35:35;-12.80;99.90
45715;DHT22;31430;61.646;24.704;2023-04-01T05:38:02;-13.00;99.90
45715;DHT22;31430;61.646;24.704;2023-04-01T05:40:28;-12.60;99.90
45715;DHT22;31430;61.646;24.704;2023-04-01T05:42:54;-12.20;99.90
45715;DHT22;31430;61.646;24.704;2023-04-01T05:45:20;-12.10;99.90
45715;DHT22;31430;61.646;24.704;2023-04-01T05:47:46;-11.80;99.90
45715;DHT22;31430;61.646;24.704;2023-04-01T05:50:11;-11.60;99.90
45715;DHT22;31430;61.646;24.704;2023-04-01T05:52:38;-11.60;99.90
45715;DHT22;31430;61.646;24.704;2023-04-01T05:55:04;-11.70;99.90
45715;DHT22;31430;61.646;24.704;2023-04-01T05:57:31;-11.40;99.90
45715;DHT22;31430;61.646;24.704;2023-04-01T05:59:57;-11.00;99.90
45715;DHT22;31430;61.646;24.704;2023-04-01T06:02:23;-10.80;99.90
45715;DHT22;31430;61.646;24.704;2023-04-01T06:04:49;-10.50;99.90
45715;DHT22;31430;61.646;24.704;2023-04-01T06:07:16;-10.20;99.90
45715;DHT22;31430;61.646;24.704;2023-04-01T06:09:43;-10.00;99.90
45715;DHT22;31430;61.646;24.704;2023-04-01T06:28:29;-9.50;99.90
45715;DHT22;31430;61.646;24.704;2023-04-01T06:39:45;-8.60;99.90
45715;DHT22;31430;61.646;24.704;2023-04-01T06:54:07;-7.30;99.90
45715;DHT22;31430;61.646;24.704;2023-04-01T06:56:37;-7.00;99.90
45715;DHT22;31430;61.646;24.704;2023-04-01T06:59:28;-6.70;99.90
45715;DHT22;31430;61.646;24.704;2023-04-01T07:04:35;-6.20;99.90
45715;DHT22;31430;61.646;24.704;2023-04-01T07:07:24;-5.80;99.90
45715;DHT22;31430;61.646;24.704;2023-04-01T07:09:55;-5.50;99.90
45715;DHT22;31430;61.646;24.704;2023-04-01T07:12:44;-5.20;99.90
45715;DHT22;31430;61.646;24.704;2023-04-01T07:15:20;-5.00;99.90
45715;DHT22;31430;61.646;24.704;2023-04-01T07:17:55;-4.70;99.90
45715;DHT22;31430;61.646;24.704;2023-04-01T07:20:23;-4.60;99.90
45715;DHT22;31430;61.646;24.704;2023-04-01T07:22:56;-4.20;99.90
45715;DHT22;31430;61.646;24.704;2023-04-01T07:25:34;-3.90;99.90
45715;DHT22;31430;61.646;24.704;2023-04-01T07:28:04;-3.70;99.90
45715;DHT22;31430;61.646;24.704;2023-04-01T07:30:47;-3.50;99.90
45715;DHT22;31430;61.646;24.704;2023-04-01T07:33:48;-3.30;98.30
45715;DHT22;31430;61.646;24.704;2023-04-01T07:52:26;-1.90;95.10
45715;DHT22;31430;61.646;24.704;2023-04-01T07:57:38;-1.60;94.40
45715;DHT22;31430;61.646;24.704;2023-04-01T08:00:26;-1.60;94.20
45715;DHT22;31430;61.646;24.704;2023-04-01T08:11:45;-1.10;92.20
45715;DHT22;31430;61.646;24.704;2023-04-01T08:14:56;-1.00;92.00
45715;DHT22;31430;61.646;24.704;2023-04-01T08:18:22;-0.90;91.80
45715;DHT22;31430;61.646;24.704;2023-04-01T08:23:18;-0.60;90.50
45715;DHT22;31430;61.646;24.704;2023-04-01T08:25:54;-0.50;90.00
45715;DHT22;31430;61.646;24.704;2023-04-01T08:33:39;-0.20;88.60
45715;DHT22;31430;61.646;24.704;2023-04-01T08:36:16;-0.10;87.70
45715;DHT22;31430;61.646;24.704;2023-04-01T08:39:08;-0.10;87.90
45715;DHT22;31430;61.646;24.704;2023-04-01T09:00:33;0.60;82.20
45715;DHT22;31430;61.646;24.704;2023-04-01T09:03:08;0.70;81.30
45715;DHT22;31430;61.646;24.704;2023-04-01T09:08:19;0.80;82.40
45715;DHT22;31430;61.646;24.704;2023-04-01T09:11:06;1.00;81.20
45715;DHT22;31430;61.646;24.704;2023-04-01T09:13:56;1.10;80.80
45715;DHT22;31430;61.646;24.704;2023-04-01T09:16:40;1.20;81.00
45715;DHT22;31430;61.646;24.704;2023-04-01T09:24:40;1.40;74.50
45715;DHT22;31430;61.646;24.704;2023-04-01T09:27:26;1.50;74.40
45715;DHT22;31430;61.646;24.704;2023-04-01T09:49:13;1.80;73.30
45715;DHT22;31430;61.646;24.704;2023-04-01T09:52:08;1.80;72.30
45715;DHT22;31430;61.646;24.704;2023-04-01T09:57:27;1.80;72.30
45715;DHT22;31430;61.646;24.704;2023-04-01T10:14:01;2.10;69.10
45715;DHT22;31430;61.646;24.704;2023-04-01T10:19:53;2.00;71.80
45715;DHT22;31430;61.646;24.704;2023-04-01T10:25:44;1.90;70.20
45715;DHT22;31430;61.646;24.704;2023-04-01T10:28:15;2.00;70.10
45715;DHT22;31430;61.646;24.704;2023-04-01T10:56:40;2.50;67.20
45715;DHT22;31430;61.646;24.704;2023-04-01T11:27:38;2.90;62.60
45715;DHT22;31430;61.646;24.704;2023-04-01T11:30:33;3.10;63.50
45715;DHT22;31430;61.646;24.704;2023-04-01T11:38:38;3.30;59.40
45715;DHT22;31430;61.646;24.704;2023-04-01T11:41:37;3.40;59.40
45715;DHT22;31430;61.646;24.704;2023-04-01T11:49:29;3.50;57.60
45715;DHT22;31430;61.646;24.704;2023-04-01T11:52:03;3.30;56.80
45715;DHT22;31430;61.646;24.704;2023-04-01T12:08:55;3.70;58.60
45715;DHT22;31430;61.646;24.704;2023-04-01T12:23:14;3.50;54.40
45715;DHT22;31430;61.646;24.704;2023-04-01T12:31:13;3.20;57.60
45715;DHT22;31430;61.646;24.704;2023-04-01T12:52:42;3.00;53.40
45715;DHT22;31430;61.646;24.704;2023-04-01T13:25:41;3.00;55.70
45715;DHT22;31430;61.646;24.704;2023-04-01T13:28:28;3.20;51.60
45715;DHT22;31430;61.646;24.704;2023-04-01T13:34:09;3.40;52.60
45715;DHT22;31430;61.646;24.704;2023-04-01T13:43:01;3.20;55.30
45715;DHT22;31430;61.646;24.704;2023-04-01T14:08:17;3.40;54.30
45715;DHT22;31430;61.646;24.704;2023-04-01T14:27:49;3.40;55.70
45715;DHT22;31430;61.646;24.704;2023-04-01T14:44:51;3.20;54.20
45715;DHT22;31430;61.646;24.704;2023-04-01T14:50:23;2.70;56.30
45715;DHT22;31430;61.646;24.704;2023-04-01T14:53:11;2.80;56.40
45715;DHT22;31430;61.646;24.704;2023-04-01T14:58:11;2.70;53.50
45715;DHT22;31430;61.646;24.704;2023-04-01T15:08:21;2.30;56.30
45715;DHT22;31430;61.646;24.704;2023-04-01T15:13:24;2.20;57.40
45715;DHT22;31430;61.646;24.704;2023-04-01T15:21:18;2.10;55.10
45715;DHT22;31430;61.646;24.704;2023-04-01T15:38:05;2.00;53.90
45715;DHT22;31430;61.646;24.704;2023-04-01T15:40:57;2.00;56.10
45715;DHT22;31430;61.646;24.704;2023-04-01T15:46:43;1.80;56.10
45715;DHT22;31430;61.646;24.704;2023-04-01T16:00:23;1.30;53.60
45715;DHT22;31430;61.646;24.704;2023-04-01T16:22:26;0.10;57.60
45715;DHT22;31430;61.646;24.704;2023-04-01T16:28:27;-0.30;59.80
45715;DHT22;31430;61.646;24.704;2023-04-01T16:31:13;-0.60;60.80
45715;DHT22;31430;61.646;24.704;2023-04-01T16:34:03;-0.80;60.30
45715;DHT22;31430;61.646;24.704;2023-04-01T16:39:36;-0.90;60.40
45715;DHT22;31430;61.646;24.704;2023-04-01T16:47:56;-1.50;62.00
45715;DHT22;31430;61.646;24.704;2023-04-01T16:50:27;-1.60;62.80
45715;DHT22;31430;61.646;24.704;2023-04-01T16:55:46;-1.90;67.20
45715;DHT22;31430;61.646;24.704;2023-04-01T17:01:05;-2.20;65.50
45715;DHT22;31430;61.646;24.704;2023-04-01T17:03:40;-2.10;66.80
45715;DHT22;31430;61.646;24.704;2023-04-01T17:09:14;-2.40;64.00
45715;DHT22;31430;61.646;24.704;2023-04-01T17:12:01;-2.50;64.80
45715;DHT22;31430;61.646;24.704;2023-04-01T17:22:54;-3.20;68.00
45715;DHT22;31430;61.646;24.704;2023-04-01T17:31:10;-3.60;68.50
45715;DHT22;31430;61.646;24.704;2023-04-01T17:33:55;-3.80;67.80
45715;DHT22;31430;61.646;24.704;2023-04-01T17:39:22;-3.90;70.20
45715;DHT22;31430;61.646;24.704;2023-04-01T17:42:14;-4.00;73.30
45715;DHT22;31430;61.646;24.704;2023-04-01T17:45:09;-4.10;74.70
45715;DHT22;31430;61.646;24.704;2023-04-01T17:50:33;-4.40;77.00
45715;DHT22;31430;61.646;24.704;2023-04-01T17:56:34;-4.60;81.30
45715;DHT22;31430;61.646;24.704;2023-04-01T17:59:19;-4.70;85.40
45715;DHT22;31430;61.646;24.704;2023-04-01T18:01:52;-4.80;89.00
45715;DHT22;31430;61.646;24.704;2023-04-01T18:04:24;-4.90;90.80
45715;DHT22;31430;61.646;24.704;2023-04-01T18:22:45;-5.50;95.00
45715;DHT22;31430;61.646;24.704;2023-04-01T18:25:14;-5.60;95.30
45715;DHT22;31430;61.646;24.704;2023-04-01T18:27:44;-5.70;96.10
45715;DHT22;31430;61.646;24.704;2023-04-01T18:32:52;-5.80;98.60
45715;DHT22;31430;61.646;24.704;2023-04-01T18:38:12;-6.00;99.90
45715;DHT22;31430;61.646;24.704;2023-04-01T18:40:45;-6.10;99.90
45715;DHT22;31430;61.646;24.704;2023-04-01T18:46:03;-6.10;99.90
45715;DHT22;31430;61.646;24.704;2023-04-01T18:51:20;-6.30;99.90
45715;DHT22;31430;61.646;24.704;2023-04-01T18:53:57;-6.50;99.90
45715;DHT22;31430;61.646;24.704;2023-04-01T18:56:37;-6.50;99.90
45715;DHT22;31430;61.646;24.704;2023-04-01T18:59:16;-6.50;99.90
45715;DHT22;31430;61.646;24.704;2023-04-01T19:20:45;-7.20;99.90
45715;DHT22;31430;61.646;24.704;2023-04-01T19:25:59;-7.20;99.90
45715;DHT22;31430;61.646;24.704;2023-04-01T19:34:49;-7.40;99.90
45715;DHT22;31430;61.646;24.704;2023-04-01T19:37:08;-7.60;99.90
45715;DHT22;31430;61.646;24.704;2023-04-01T19:39:58;-7.60;99.90
45715;DHT22;31430;61.646;24.704;2023-04-01T19:48:24;-7.70;99.90
45715;DHT22;31430;61.646;24.704;2023-04-01T19:57:32;-7.90;99.90
45715;DHT22;31430;61.646;24.704;2023-04-01T20:00:46;-8.00;99.90
45715;DHT22;31430;61.646;24.704;2023-04-01T20:05:21;-8.00;99.90
45715;DHT22;31430;61.646;24.704;2023-04-01T20:07:53;-8.10;99.90
45715;DHT22;31430;61.646;24.704;2023-04-01T20:10:29;-8.10;99.90
45715;DHT22;31430;61.646;24.704;2023-04-01T20:13:12;-8.10;99.90
45715;DHT22;31430;61.646;24.704;2023-04-01T20:15:54;-8.20;99.90
45715;DHT22;31430;61.646;24.704;2023-04-01T20:18:38;-8.30;99.90
45715;DHT22;31430;61.646;24.704;2023-04-01T20:23:43;-8.30;99.90
45715;DHT22;31430;61.646;24.704;2023-04-01T20:26:12;-8.30;99.90
45715;DHT22;31430;61.646;24.704;2023-04-01T20:31:30;-8.30;99.90
45715;DHT22;31430;61.646;24.704;2023-04-01T20:39:52;-8.60;99.90
45715;DHT22;31430;61.646;24.704;2023-04-01T20:53:25;-8.80;99.90
45715;DHT22;31430;61.646;24.704;2023-04-01T21:07:04;-9.00;99.90
45715;DHT22;31430;61.646;24.704;2023-04-01T21:13:20;-8.90;99.90
45715;DHT22;31430;61.646;24.704;2023-04-01T21:40:39;-9.00;99.90
45715;DHT22;31430;61.646;24.704;2023-04-01T21:49:07;-9.00;99.90
45715;DHT22;31430;61.646;24.704;2023-04-01T21:52:00;-9.10;99.90
45715;DHT22;31430;61.646;24.704;2023-04-01T21:57:23;-9.20;99.90
45715;DHT22;31430;61.646;24.704;2023-04-01T22:00:07;-9.20;99.90
45715;DHT22;31430;61.646;24.704;2023-04-01T22:02:51;-9.10;99.90
45715;DHT22;31430;61.646;24.704;2023-04-01T22:05:36;-9.30;99.90
45715;DHT22;31430;61.646;24.704;2023-04-01T22:11:52;-9.30;99.90
45715;DHT22;31430;61.646;24.704;2023-04-01T22:16:53;-9.40;99.90
45715;DHT22;31430;61.646;24.704;2023-04-01T22:19:47;-9.40;99.90
45715;DHT22;31430;61.646;24.704;2023-04-01T22:30:50;-9.40;99.90
45715;DHT22;31430;61.646;24.704;2023-04-01T22:44:26;-9.80;99.90
45715;DHT22;31430;61.646;24.704;2023-04-01T22:47:57;-9.80;99.90
45715;DHT22;31430;61.646;24.704;2023-04-01T22:50:35;-9.90;99.90
45715;DHT22;31430;61.646;24.704;2023-04-01T22:55:53;-10.00;99.90
45715;DHT22;31430;61.646;24.704;2023-04-01T22:58:26;-10.00;99.90
45715;DHT22;31430;61.646;24.704;2023-04-01T23:01:07;-10.00;99.90
45715;DHT22;31430;61.646;24.704;2023-04-01T23:03:40;-10.10;99.90
45715;DHT22;31430;61.646;24.704;2023-04-01T23:26:29;-10.50;99.90
45715;DHT22;31430;61.646;24.704;2023-04-01T23:33:57;-10.50;99.90
45715;DHT22;31430;61.646;24.704;2023-04-01T23:36:23;-10.50;99.90
45715;DHT22;31430;61.646;24.704;2023-04-01T23:38:50;-10.50;99.90
45715;DHT22;31430;61.646;24.704;2023-04-01T23:41:28;-10.50;99.90
45715;DHT22;31430;61.646;24.704;2023-04-01T23:44:05;-10.50;99.90
45715;DHT22;31430;61.646;24.704;2023-04-01T23:46:34;-10.60;99.90
45715;DHT22;31430;61.646;24.704;2023-04-01T23:49:02;-10.70;99.90
45715;DHT22;31430;61.646;24.704;2023-04-01T23:51:37;-10.60;99.90
45715;DHT22;31430;61.646;24.704;2023-04-01T23:54:34;-10.70;99.90
45715;DHT22;31430;61.646;24.704;2023-04-01T23:57:12;-10.70;99.90
45715;DHT22;31430;61.646;24.704;2023-04-01T23:59:39;-10.80;99.90
